createdAt,value
2023-03-25T00:00:32.822Z,8.40
2023-03-25T00:03:22.377Z,8.40
2023-03-25T00:06:13.538Z,8.40
2023-03-25T00:09:03.653Z,8.40
2023-03-25T00:11:53.665Z,8.40
2023-03-25T00:14:42.165Z,8.40
2023-03-25T00:17:31.012Z,8.50
2023-03-25T00:20:19.483Z,8.50
2023-03-25T00:23:07.970Z,8.50
2023-03-25T00:26:00.652Z,8.60
2023-03-25T00:28:50.445Z,8.50
2023-03-25T00:31:38.661Z,8.50
2023-03-25T00:34:27.097Z,8.30
2023-03-25T00:37:17.591Z,8.30
2023-03-25T00:40:08.895Z,8.30
2023-03-25T00:42:58.477Z,8.20
2023-03-25T00:45:48.090Z,8.20
2023-03-25T00:48:36.578Z,8.10
2023-03-25T00:51:26.367Z,8.10
2023-03-25T00:54:14.863Z,8.00
2023-03-25T00:57:03.366Z,8.00
2023-03-25T00:59:51.935Z,7.90
2023-03-25T01:02:41.857Z,7.80
2023-03-25T01:05:30.291Z,7.90
2023-03-25T01:08:19.726Z,7.90
2023-03-25T01:11:19.019Z,8.00
2023-03-25T01:14:11.907Z,8.10
2023-03-25T01:17:01.894Z,8.20
2023-03-25T01:19:52.886Z,8.30
2023-03-25T01:22:41.193Z,8.20
2023-03-25T01:25:29.408Z,8.30
2023-03-25T01:28:17.610Z,8.30
2023-03-25T01:31:09.291Z,8.30
2023-03-25T01:33:57.889Z,8.30
2023-03-25T01:36:48.515Z,8.30
2023-03-25T01:39:37.499Z,8.30
2023-03-25T01:42:26.126Z,8.30
2023-03-25T01:45:29.133Z,8.30
2023-03-25T01:48:22.820Z,8.30
2023-03-25T01:51:17.307Z,8.30
2023-03-25T01:54:07.799Z,8.30
2023-03-25T01:56:56.909Z,8.40
2023-03-25T01:59:45.628Z,8.40
2023-03-25T02:02:36.681Z,8.40
2023-03-25T02:05:35.951Z,8.40
2023-03-25T02:08:26.365Z,8.40
2023-03-25T02:11:15.922Z,8.40
2023-03-25T02:14:10.638Z,8.40
2023-03-25T02:17:13.658Z,8.40
2023-03-25T02:20:55.463Z,8.50
2023-03-25T02:24:25.815Z,8.50
2023-03-25T02:27:33.541Z,8.60
2023-03-25T02:31:11.905Z,8.60
2023-03-25T02:34:34.616Z,8.70
2023-03-25T02:38:07.238Z,8.70
2023-03-25T02:41:08.931Z,8.80
2023-03-25T02:44:06.388Z,8.90
2023-03-25T02:47:01.369Z,9.00
2023-03-25T02:49:56.861Z,9.00
2023-03-25T02:52:52.062Z,9.00
2023-03-25T02:55:47.968Z,9.00
2023-03-25T02:58:38.316Z,9.00
2023-03-25T03:01:27.260Z,9.00
2023-03-25T03:04:16.627Z,8.90
2023-03-25T03:07:04.922Z,8.90
2023-03-25T03:10:06.302Z,8.90
2023-03-25T03:13:13.164Z,8.90
2023-03-25T03:16:13.331Z,8.90
2023-03-25T03:19:21.193Z,8.90
2023-03-25T03:22:30.046Z,8.90
2023-03-25T03:25:32.074Z,8.90
2023-03-25T03:28:30.111Z,8.90
2023-03-25T03:31:59.870Z,9.10
2023-03-25T03:34:46.398Z,8.90
2023-03-25T03:37:40.569Z,8.90
2023-03-25T03:40:33.473Z,8.90
2023-03-25T03:43:29.653Z,8.90
2023-03-25T03:46:23.645Z,8.90
2023-03-25T03:49:19.646Z,9.00
2023-03-25T03:52:17.057Z,9.00
2023-03-25T03:55:13.867Z,8.90
2023-03-25T03:58:09.537Z,8.90
2023-03-25T04:01:09.772Z,8.90
2023-03-25T04:04:02.004Z,8.90
2023-03-25T04:06:58.647Z,8.90
2023-03-25T04:09:58.125Z,8.90
2023-03-25T04:12:52.064Z,8.90
2023-03-25T04:15:41.418Z,8.80
2023-03-25T04:18:33.638Z,8.70
2023-03-25T04:21:22.179Z,8.60
2023-03-25T04:24:11.566Z,8.60
2023-03-25T04:27:04.346Z,8.50
2023-03-25T04:29:52.849Z,8.40
2023-03-25T04:32:41.082Z,8.40
2023-03-25T04:35:32.967Z,8.30
2023-03-25T04:38:22.330Z,8.30
2023-03-25T04:41:12.325Z,8.20
2023-03-25T04:44:00.822Z,8.10
2023-03-25T04:46:49.650Z,8.10
2023-03-25T04:49:37.854Z,8.00
2023-03-25T04:52:27.400Z,8.00
2023-03-25T04:55:17.700Z,8.00
2023-03-25T04:58:07.486Z,7.90
2023-03-25T05:00:56.235Z,7.90
2023-03-25T05:03:44.442Z,7.90
2023-03-25T05:06:34.217Z,7.90
2023-03-25T05:09:24.125Z,8.00
2023-03-25T05:12:12.737Z,8.10
2023-03-25T05:15:00.922Z,8.10
2023-03-25T05:17:49.421Z,8.20
2023-03-25T05:20:39.974Z,8.30
2023-03-25T05:23:28.666Z,8.40
2023-03-25T05:26:19.336Z,8.40
2023-03-25T05:29:10.797Z,8.50
2023-03-25T05:31:59.367Z,8.50
2023-03-25T05:34:47.668Z,8.60
2023-03-25T05:37:35.841Z,8.70
2023-03-25T05:40:25.350Z,8.70
2023-03-25T05:43:16.052Z,8.80
2023-03-25T05:46:05.356Z,8.80
2023-03-25T05:48:53.521Z,9.00
2023-03-25T05:51:42.064Z,9.10
2023-03-25T05:54:30.792Z,9.20
2023-03-25T05:57:19.187Z,9.10
2023-03-25T06:00:12.834Z,9.20
2023-03-25T06:03:01.417Z,9.20
2023-03-25T06:05:50.542Z,9.20
2023-03-25T06:08:38.932Z,9.30
2023-03-25T06:11:27.384Z,9.40
2023-03-25T06:14:15.599Z,9.50
2023-03-25T06:17:05.524Z,9.50
2023-03-25T06:19:53.740Z,9.50
2023-03-25T06:22:44.808Z,9.60
2023-03-25T06:25:33.029Z,9.60
2023-03-25T06:28:23.261Z,9.60
2023-03-25T06:31:16.851Z,9.70
2023-03-25T06:34:06.486Z,9.70
2023-03-25T06:36:54.725Z,9.60
2023-03-25T06:39:46.255Z,9.60
2023-03-25T06:42:39.387Z,9.50
2023-03-25T06:45:53.692Z,9.60
2023-03-25T06:48:53.947Z,9.50
2023-03-25T06:51:43.886Z,9.40
2023-03-25T06:54:32.102Z,9.40
2023-03-25T06:57:20.297Z,9.40
2023-03-25T07:00:11.973Z,9.50
2023-03-25T07:03:00.856Z,9.70
2023-03-25T07:05:49.852Z,9.90
2023-03-25T07:08:39.566Z,10.10
2023-03-25T07:11:31.493Z,10.30
2023-03-25T07:14:19.752Z,10.40
2023-03-25T07:17:08.461Z,10.40
2023-03-25T07:19:56.749Z,10.40
2023-03-25T07:22:45.216Z,10.50
2023-03-25T07:25:34.803Z,10.80
2023-03-25T07:28:23.061Z,11.20
2023-03-25T07:31:14.273Z,11.60
2023-03-25T07:34:02.922Z,12.00
2023-03-25T07:36:51.144Z,12.20
2023-03-25T07:39:39.365Z,12.20
2023-03-25T07:42:28.895Z,12.40
2023-03-25T07:45:44.159Z,12.30
2023-03-25T07:48:33.440Z,12.10
2023-03-25T07:51:21.694Z,12.20
2023-03-25T07:54:10.596Z,12.40
2023-03-25T07:56:58.970Z,12.60
2023-03-25T07:59:48.552Z,12.40
2023-03-25T08:02:36.786Z,12.30
2023-03-25T08:05:25.037Z,12.20
2023-03-25T08:08:13.456Z,12.50
2023-03-25T08:11:01.839Z,13.10
2023-03-25T08:13:50.057Z,13.80
2023-03-25T08:16:39.697Z,14.50
2023-03-25T08:19:28.106Z,14.70
2023-03-25T08:22:16.298Z,14.90
2023-03-25T08:25:05.152Z,15.30
2023-03-25T08:27:53.483Z,15.90
2023-03-25T08:30:41.751Z,16.20
2023-03-25T08:33:34.352Z,15.90
2023-03-25T08:36:23.318Z,15.70
2023-03-25T08:39:12.686Z,15.40
2023-03-25T08:42:00.885Z,15.10
2023-03-25T08:44:49.067Z,15.10
2023-03-25T08:47:37.351Z,14.90
2023-03-25T08:50:27.237Z,15.00
2023-03-25T08:53:15.464Z,15.30
2023-03-25T08:56:03.934Z,15.40
2023-03-25T08:58:52.161Z,15.30
2023-03-25T09:01:42.226Z,15.20
2023-03-25T09:04:30.827Z,14.90
2023-03-25T09:07:20.403Z,14.70
2023-03-25T09:10:10.564Z,14.60
2023-03-25T09:12:59.130Z,14.30
2023-03-25T09:15:47.611Z,14.00
2023-03-25T09:18:36.739Z,13.80
2023-03-25T09:21:25.293Z,13.70
2023-03-25T09:24:14.853Z,13.40
2023-03-25T09:27:04.223Z,13.40
2023-03-25T09:29:52.451Z,13.40
2023-03-25T09:32:40.747Z,13.30
2023-03-25T09:35:29.171Z,13.10
2023-03-25T09:38:17.768Z,12.90
2023-03-25T09:41:31.290Z,12.80
2023-03-25T09:44:28.027Z,12.70
2023-03-25T09:47:19.397Z,12.70
2023-03-25T09:50:16.056Z,12.80
2023-03-25T09:53:26.122Z,12.90
2023-03-25T09:56:22.107Z,13.00
2023-03-25T09:59:18.539Z,13.10
2023-03-25T10:02:27.302Z,13.00
2023-03-25T10:05:37.595Z,12.90
2023-03-25T10:08:41.734Z,12.90
2023-03-25T10:11:43.420Z,13.00
2023-03-25T10:14:43.999Z,13.00
2023-03-25T10:17:42.750Z,13.10
2023-03-25T10:20:47.825Z,12.90
2023-03-25T10:23:43.051Z,13.00
2023-03-25T10:26:46.505Z,13.30
2023-03-25T10:29:43.253Z,13.40
2023-03-25T10:32:40.420Z,13.40
2023-03-25T10:35:31.681Z,13.30
2023-03-25T10:38:24.985Z,13.30
2023-03-25T10:41:23.832Z,13.30
2023-03-25T10:44:14.120Z,13.30
2023-03-25T10:47:09.343Z,13.40
2023-03-25T10:49:59.384Z,13.50
2023-03-25T10:52:51.673Z,13.50
2023-03-25T10:55:41.608Z,13.40
2023-03-25T10:58:32.328Z,13.30
2023-03-25T11:01:35.139Z,13.40
2023-03-25T11:04:30.942Z,13.20
2023-03-25T11:07:24.646Z,13.10
2023-03-25T11:10:19.914Z,12.90
2023-03-25T11:13:16.522Z,12.80
2023-03-25T11:16:06.148Z,12.70
2023-03-25T11:18:56.011Z,12.90
2023-03-25T11:21:49.781Z,13.00
2023-03-25T11:24:45.480Z,13.00
2023-03-25T11:27:45.590Z,13.00
2023-03-25T11:30:34.014Z,13.10
2023-03-25T11:33:27.019Z,12.50
2023-03-25T11:36:28.691Z,11.90
2023-03-25T11:39:20.225Z,11.40
2023-03-25T11:42:26.370Z,11.10
2023-03-25T11:45:23.272Z,10.90
2023-03-25T11:48:17.396Z,10.90
2023-03-25T11:51:10.776Z,11.00
2023-03-25T11:54:04.171Z,11.20
2023-03-25T11:56:52.485Z,11.50
2023-03-25T11:59:47.126Z,11.90
2023-03-25T12:02:40.431Z,12.10
2023-03-25T12:05:28.920Z,12.30
2023-03-25T12:08:18.996Z,12.40
2023-03-25T12:11:15.251Z,12.50
2023-03-25T12:14:30.991Z,12.60
2023-03-25T12:17:33.069Z,12.80
2023-03-25T12:20:32.091Z,12.80
2023-03-25T12:23:37.812Z,12.80
2023-03-25T12:26:37.702Z,13.00
2023-03-25T12:29:42.805Z,13.00
2023-03-25T12:32:43.312Z,12.90
2023-03-25T12:35:43.291Z,13.00
2023-03-25T12:38:51.225Z,12.80
2023-03-25T12:41:48.463Z,12.70
2023-03-25T12:45:02.129Z,12.80
2023-03-25T12:47:57.251Z,12.80
2023-03-25T12:51:01.059Z,12.80
2023-03-25T12:54:09.671Z,12.80
2023-03-25T12:57:16.748Z,12.90
2023-03-25T13:00:25.535Z,13.00
2023-03-25T13:03:53.837Z,12.90
2023-03-25T13:06:48.689Z,12.70
2023-03-25T13:09:49.318Z,12.50
2023-03-25T13:12:44.721Z,12.50
2023-03-25T13:15:40.023Z,12.40
2023-03-25T13:18:34.560Z,12.50
2023-03-25T13:21:29.262Z,12.60
2023-03-25T13:24:22.360Z,12.50
2023-03-25T13:27:13.866Z,12.50
2023-03-25T13:30:10.361Z,12.50
2023-03-25T13:33:08.103Z,12.60
2023-03-25T13:36:03.786Z,12.50
2023-03-25T13:38:57.491Z,12.40
2023-03-25T13:41:53.697Z,12.40
2023-03-25T13:44:47.816Z,12.30
2023-03-25T13:47:44.666Z,12.30
2023-03-25T13:50:36.462Z,12.30
2023-03-25T13:53:34.331Z,12.40
2023-03-25T13:57:01.740Z,12.30
2023-03-25T14:00:36.559Z,12.30
2023-03-25T14:04:10.674Z,12.30
2023-03-25T14:07:34.370Z,12.40
2023-03-25T14:10:50.972Z,12.40
2023-03-25T14:13:44.956Z,12.50
2023-03-25T14:16:39.112Z,12.50
2023-03-25T14:19:33.350Z,12.30
2023-03-25T14:22:27.422Z,12.20
2023-03-25T14:25:22.971Z,12.10
2023-03-25T14:28:19.221Z,11.90
2023-03-25T14:31:17.826Z,11.70
2023-03-25T14:34:26.269Z,11.50
2023-03-25T14:37:32.123Z,11.20
2023-03-25T14:41:03.526Z,10.80
2023-03-25T14:44:10.723Z,11.10
2023-03-25T14:47:27.649Z,11.10
2023-03-25T14:50:34.633Z,11.00
2023-03-25T14:53:24.712Z,10.90
2023-03-25T14:56:20.483Z,10.90
2023-03-25T14:59:14.921Z,10.80
2023-03-25T15:02:11.902Z,10.70
2023-03-25T15:05:05.235Z,10.80
2023-03-25T15:08:00.197Z,10.70
2023-03-25T15:11:05.683Z,10.80
2023-03-25T15:14:03.262Z,10.70
2023-03-25T15:17:03.128Z,10.80
2023-03-25T15:20:29.683Z,10.80
2023-03-25T15:23:43.295Z,10.50
2023-03-25T15:26:38.398Z,10.40
2023-03-25T15:29:55.667Z,10.40
2023-03-25T15:33:01.813Z,10.30
2023-03-25T15:36:15.381Z,10.30
2023-03-25T15:39:25.790Z,10.30
2023-03-25T15:43:00.225Z,10.40
2023-03-25T15:46:32.999Z,10.50
2023-03-25T15:50:10.028Z,10.70
2023-03-25T15:53:45.008Z,10.80
2023-03-25T15:56:40.751Z,10.70
2023-03-25T15:59:42.649Z,10.60
2023-03-25T16:02:37.787Z,10.60
2023-03-25T16:05:27.296Z,10.60
2023-03-25T16:08:26.102Z,10.50
2023-03-25T16:11:17.175Z,10.40
2023-03-25T16:14:09.394Z,10.30
2023-03-25T16:17:02.807Z,10.10
2023-03-25T16:19:55.647Z,10.10
2023-03-25T16:22:45.580Z,10.00
2023-03-25T16:25:37.926Z,10.10
2023-03-25T16:28:32.595Z,10.10
2023-03-25T16:31:34.929Z,10.20
2023-03-25T16:34:26.211Z,10.40
2023-03-25T16:37:16.239Z,10.50
2023-03-25T16:40:08.393Z,10.60
2023-03-25T16:43:05.360Z,10.60
2023-03-25T16:45:57.490Z,10.50
2023-03-25T16:48:53.072Z,10.50
2023-03-25T16:51:46.286Z,10.40
2023-03-25T16:54:44.281Z,10.30
2023-03-25T16:57:38.994Z,10.40
2023-03-25T17:00:41.769Z,10.30
2023-03-25T17:03:43.271Z,10.20
2023-03-25T17:06:39.272Z,10.30
2023-03-25T17:09:34.785Z,10.30
2023-03-25T17:12:26.187Z,10.30
2023-03-25T17:15:18.733Z,10.30
2023-03-25T17:18:15.356Z,10.30
2023-03-25T17:21:04.749Z,10.30
2023-03-25T17:23:55.762Z,10.30
2023-03-25T17:27:05.337Z,10.30
2023-03-25T17:29:57.374Z,10.30
2023-03-25T17:32:46.570Z,10.30
2023-03-25T17:35:35.061Z,11.00
2023-03-25T17:38:28.855Z,10.20
2023-03-25T17:41:19.624Z,10.00
2023-03-25T17:44:09.351Z,9.90
2023-03-25T17:46:57.917Z,9.90
2023-03-25T17:49:46.746Z,9.70
2023-03-25T17:52:36.222Z,9.60
2023-03-25T17:55:24.434Z,9.60
2023-03-25T17:58:12.843Z,9.60
2023-03-25T18:01:02.575Z,9.50
2023-03-25T18:03:50.734Z,9.50
2023-03-25T18:06:39.133Z,9.40
2023-03-25T18:09:27.919Z,9.30
2023-03-25T18:12:16.317Z,9.20
2023-03-25T18:15:10.438Z,9.20
2023-03-25T18:18:00.160Z,9.20
2023-03-25T18:20:49.889Z,9.20
2023-03-25T18:23:38.419Z,9.20
2023-03-25T18:26:28.429Z,9.20
2023-03-25T18:29:23.113Z,9.20
2023-03-25T18:32:11.447Z,9.20
2023-03-25T18:35:01.024Z,9.10
2023-03-25T18:37:49.681Z,9.00
2023-03-25T18:40:38.606Z,9.00
2023-03-25T18:43:26.914Z,8.90
2023-03-25T18:46:16.832Z,8.90
2023-03-25T18:49:12.385Z,8.90
2023-03-25T18:52:02.928Z,8.90
2023-03-25T18:54:51.161Z,9.00
2023-03-25T18:57:39.486Z,9.20
2023-03-25T19:00:34.866Z,9.20
2023-03-25T19:03:30.431Z,9.10
2023-03-25T19:06:19.727Z,9.20
2023-03-25T19:09:19.092Z,9.10
2023-03-25T19:12:07.726Z,9.20
2023-03-25T19:14:55.943Z,9.10
2023-03-25T19:17:45.696Z,9.20
2023-03-25T19:20:37.259Z,9.20
2023-03-25T19:23:25.625Z,9.10
2023-03-25T19:26:16.108Z,9.00
2023-03-25T19:29:04.402Z,8.90
2023-03-25T19:31:52.622Z,8.90
2023-03-25T19:34:46.271Z,8.90
2023-03-25T19:37:36.039Z,8.80
2023-03-25T19:40:28.082Z,8.60
2023-03-25T19:43:18.553Z,8.40
2023-03-25T19:46:07.789Z,8.30
2023-03-25T19:48:56.247Z,8.30
2023-03-25T19:51:45.201Z,8.30
2023-03-25T19:54:33.510Z,8.20
2023-03-25T19:57:22.155Z,8.20
2023-03-25T20:00:17.172Z,8.20
2023-03-25T20:03:06.343Z,8.10
2023-03-25T20:05:58.587Z,8.00
2023-03-25T20:08:46.830Z,7.90
2023-03-25T20:11:35.188Z,7.90
2023-03-25T20:14:23.853Z,7.90
2023-03-25T20:17:13.404Z,7.80
2023-03-25T20:20:01.657Z,7.80
2023-03-25T20:22:49.953Z,7.90
2023-03-25T20:25:38.421Z,7.80
2023-03-25T20:28:26.765Z,7.90
2023-03-25T20:31:19.773Z,7.90
2023-03-25T20:34:09.779Z,8.00
2023-03-25T20:36:59.302Z,7.90
2023-03-25T20:39:47.845Z,7.90
2023-03-25T20:42:36.055Z,7.90
2023-03-25T20:45:29.239Z,7.90
2023-03-25T20:48:17.490Z,7.80
2023-03-25T20:51:11.599Z,7.80
2023-03-25T20:53:59.815Z,7.80
2023-03-25T20:56:48.116Z,7.80
2023-03-25T20:59:36.550Z,7.80
2023-03-25T21:02:25.821Z,7.80
2023-03-25T21:05:14.379Z,7.90
2023-03-25T21:08:04.053Z,7.90
2023-03-25T21:10:52.732Z,7.90
2023-03-25T21:13:41.320Z,7.80
2023-03-25T21:16:29.646Z,7.80
2023-03-25T21:19:18.051Z,7.70
2023-03-25T21:22:06.492Z,7.70
2023-03-25T21:24:56.202Z,7.60
2023-03-25T21:27:46.563Z,7.50
2023-03-25T21:30:34.893Z,7.50
2023-03-25T21:33:23.216Z,7.50
2023-03-25T21:36:11.712Z,7.60
2023-03-25T21:39:03.711Z,7.70
2023-03-25T21:41:53.596Z,7.70
2023-03-25T21:44:42.975Z,7.90
2023-03-25T21:47:31.633Z,7.90
2023-03-25T21:50:21.556Z,8.00
2023-03-25T21:53:13.166Z,8.00
2023-03-25T21:56:04.606Z,8.00
2023-03-25T21:58:54.397Z,8.00
2023-03-25T22:01:42.709Z,7.90
2023-03-25T22:04:31.428Z,7.90
2023-03-25T22:07:19.948Z,8.00
2023-03-25T22:10:11.271Z,7.90
2023-03-25T22:12:59.797Z,8.00
2023-03-25T22:15:49.331Z,8.10
2023-03-25T22:18:39.408Z,8.10
2023-03-25T22:21:30.661Z,8.20
2023-03-25T22:24:18.999Z,8.20
2023-03-25T22:27:07.224Z,8.20
2023-03-25T22:29:55.649Z,8.20
2023-03-25T22:32:45.398Z,8.20
2023-03-25T22:35:33.813Z,8.10
2023-03-25T22:38:22.036Z,8.20
2023-03-25T22:41:10.490Z,8.20
2023-03-25T22:43:58.763Z,8.30
2023-03-25T22:46:48.337Z,8.30
2023-03-25T22:49:37.909Z,8.40
2023-03-25T22:52:26.168Z,8.50
2023-03-25T22:55:14.776Z,8.50
2023-03-25T22:58:03.286Z,8.50
2023-03-25T23:00:52.592Z,8.50
2023-03-25T23:03:41.431Z,8.60
2023-03-25T23:06:31.602Z,8.60
2023-03-25T23:09:39.808Z,8.60
2023-03-25T23:12:28.340Z,8.60
2023-03-25T23:15:16.913Z,8.60
2023-03-25T23:18:05.746Z,8.70
2023-03-25T23:20:54.187Z,8.70
2023-03-25T23:23:52.872Z,8.70
2023-03-25T23:26:42.709Z,8.80
2023-03-25T23:29:31.039Z,8.80
2023-03-25T23:32:19.279Z,8.80
2023-03-25T23:35:09.270Z,8.80
2023-03-25T23:37:57.922Z,8.80
2023-03-25T23:40:47.467Z,8.80
2023-03-25T23:43:36.499Z,8.80
2023-03-25T23:46:27.104Z,8.80
2023-03-25T23:49:17.821Z,8.80
2023-03-25T23:52:11.015Z,8.80
2023-03-25T23:54:59.253Z,8.80
2023-03-25T23:57:48.803Z,8.80
